Time;durP1;ratioP1;P1;durP2;ratioP2;P2;SDS_P1;SDS_P2;PMS_P1;PMS_P2;Temp;Humidity;BMP_temperature;BMP_pressure;BME280_temperature;BME280_humidity;BME280_pressure;Samples;Min_cycle;Max_cycle;Signal;HPM_P1;HPM_P2
2022/08/16 00:02:03;;;;;;;12.15;6.78;;;;;;;20.35;86.74;99968.81;6011760;28;20041;-66
2022/08/16 00:04:59;;;;;;;11.77;7.22;;;;;;;20.34;86.62;99973.34;6021663;28;20113;-66
2022/08/16 00:07:55;;;;;;;12.25;7.35;;;;;;;20.40;86.60;99969.75;6019093;28;20037;-66
2022/08/16 00:10:50;;;;;;;10.75;7.30;;;;;;;20.18;86.94;99964.00;6020139;28;20381;-66
2022/08/16 00:13:48;;;;;;;11.80;7.17;;;;;;;20.11;87.62;99965.94;6021741;28;20038;-65
2022/08/16 00:16:43;;;;;;;14.55;7.80;;;;;;;20.03;87.65;99968.94;6022486;28;20265;-65
2022/08/16 00:19:38;;;;;;;13.95;7.38;;;;;;;19.91;88.05;99961.84;6018297;28;20121;-65
2022/08/16 00:22:36;;;;;;;13.43;7.53;;;;;;;19.97;88.00;99964.47;6020722;28;20030;-65
2022/08/16 00:25:32;;;;;;;12.57;7.72;;;;;;;19.96;87.74;99962.00;6018098;28;20039;-64
2022/08/16 00:28:27;;;;;;;11.10;7.30;;;;;;;19.93;88.10;99971.34;6021543;28;20034;-65
2022/08/16 00:31:22;;;;;;;12.60;7.33;;;;;;;19.86;88.70;99969.78;6021595;28;20034;-65
2022/08/16 00:34:19;;;;;;;16.30;8.57;;;;;;;19.67;88.98;99971.66;6016998;28;20654;-65
2022/08/16 00:37:15;;;;;;;13.02;7.90;;;;;;;19.60;89.41;99971.72;6021938;28;20042;-65
2022/08/16 00:40:14;;;;;;;12.13;7.03;;;;;;;19.74;88.57;99977.78;6015516;28;20053;-64
2022/08/16 00:43:13;;;;;;;17.83;7.65;;;;;;;19.53;89.36;99973.66;6036543;28;20041;-65
2022/08/16 00:46:27;;;;;;;13.68;8.02;;;;;;;19.50;89.67;99974.09;6020169;28;20038;-65
2022/08/16 00:49:23;;;;;;;15.57;7.45;;;;;;;19.47;89.96;99976.41;6015034;28;20042;-65
2022/08/16 00:52:18;;;;;;;12.63;7.78;;;;;;;19.50;89.73;99976.78;6015361;28;20112;-66
2022/08/16 00:55:14;;;;;;;10.70;7.13;;;;;;;19.44;90.71;99983.03;6020944;28;20035;-66
2022/08/16 00:58:09;;;;;;;12.27;8.10;;;;;;;19.64;89.61;99984.72;6013458;28;20084;-65
2022/08/16 01:01:06;;;;;;;12.50;7.68;;;;;;;19.47;89.66;99971.84;6021559;28;20172;-65
2022/08/16 01:04:02;;;;;;;16.17;7.72;;;;;;;19.56;89.97;99991.22;6020529;28;20042;-65
2022/08/16 01:07:00;;;;;;;12.32;7.47;;;;;;;19.54;89.75;99977.16;6022154;28;20037;-65
2022/08/16 01:09:55;;;;;;;12.35;7.00;;;;;;;19.69;90.01;99980.31;6012073;28;20037;-65
2022/08/16 01:12:51;;;;;;;17.27;8.18;;;;;;;19.54;89.06;99979.88;6012394;28;20034;-65
2022/08/16 01:15:50;;;;;;;12.77;7.90;;;;;;;19.32;89.99;99967.84;6014724;28;20043;-66
2022/08/16 01:18:52;;;;;;;14.75;8.20;;;;;;;19.27;90.40;99989.97;6035652;28;20073;-66
2022/08/16 01:21:57;;;;;;;16.63;8.18;;;;;;;19.17;90.72;99992.34;6024287;28;20153;-65
2022/08/16 01:24:55;;;;;;;17.08;8.52;;;;;;;19.07;91.41;99991.19;6023039;28;20109;-65
2022/08/16 01:27:52;;;;;;;16.45;7.45;;;;;;;19.09;91.71;100000.69;6025186;28;20038;-65
2022/08/16 01:30:54;;;;;;;13.32;8.05;;;;;;;19.00;91.69;99996.59;6024843;28;20093;-65
2022/08/16 01:33:49;;;;;;;12.23;7.80;;;;;;;18.97;91.88;100003.25;6039432;28;20038;-65
2022/08/16 01:36:45;;;;;;;14.40;8.50;;;;;;;19.09;91.09;99989.09;6024552;28;20030;-64
2022/08/16 01:39:41;;;;;;;16.80;8.00;;;;;;;19.01;91.37;100001.78;6025010;28;20042;-65
2022/08/16 01:42:37;;;;;;;13.40;8.57;;;;;;;18.81;92.11;99992.19;6016994;28;20042;-65
2022/08/16 01:45:32;;;;;;;15.37;9.07;;;;;;;18.76;92.85;99995.53;6023073;28;20049;-65
2022/08/16 01:48:29;;;;;;;15.35;8.80;;;;;;;18.78;92.95;100009.56;6025637;28;20028;-64
2022/08/16 01:51:26;;;;;;;14.75;8.60;;;;;;;18.72;92.90;99997.03;6015262;28;20046;-65
2022/08/16 01:54:21;;;;;;;15.38;8.95;;;;;;;18.69;92.80;100000.16;6023518;28;20042;-65
2022/08/16 01:57:17;;;;;;;15.13;8.20;;;;;;;18.82;92.58;100021.56;6023370;28;20800;-65
2022/08/16 02:00:14;;;;;;;15.63;8.73;;;;;;;18.70;92.64;100014.38;6018555;28;20670;-65
2022/08/16 02:03:09;;;;;;;16.10;8.32;;;;;;;18.78;92.55;100014.16;6025020;28;20033;-65
2022/08/16 02:06:05;;;;;;;12.68;7.85;;;;;;;18.76;91.99;100027.78;6019128;28;20038;-65
2022/08/16 02:09:01;;;;;;;12.60;8.00;;;;;;;18.78;91.49;100014.16;6024051;28;20060;-65
2022/08/16 02:11:58;;;;;;;13.57;7.80;;;;;;;18.78;91.31;100027.59;6021557;28;20030;-64
2022/08/16 02:14:53;;;;;;;11.88;7.70;;;;;;;18.77;90.52;100013.31;6023214;28;20027;-65
2022/08/16 02:17:49;;;;;;;14.10;8.33;;;;;;;18.67;90.98;100015.63;6025333;28;20053;-65
2022/08/16 02:20:48;;;;;;;11.10;7.10;;;;;;;18.59;91.62;100010.50;6021899;28;20046;-65
2022/08/16 02:23:44;;;;;;;13.68;7.18;;;;;;;18.60;91.96;100022.91;6039837;28;20074;-66
2022/08/16 02:26:40;;;;;;;17.23;8.40;;;;;;;18.55;92.13;100030.78;6021981;28;20042;-65
2022/08/16 02:29:36;;;;;;;14.07;7.53;;;;;;;18.58;92.16;100030.38;6022410;28;20037;-65
2022/08/16 02:32:33;;;;;;;15.70;8.23;;;;;;;18.53;92.03;100022.13;6011853;28;20042;-64
2022/08/16 02:35:28;;;;;;;16.45;8.13;;;;;;;18.61;91.95;100035.31;6023144;28;20049;-65
2022/08/16 02:38:24;;;;;;;14.47;8.03;;;;;;;18.54;91.71;100012.19;6024514;28;20505;-65
2022/08/16 02:41:20;;;;;;;16.23;8.60;;;;;;;18.53;91.71;100014.09;6015122;28;20473;-65
2022/08/16 02:44:16;;;;;;;12.47;7.40;;;;;;;18.54;91.44;100013.03;6024429;28;20044;-66
2022/08/16 02:47:11;;;;;;;13.70;7.63;;;;;;;18.57;91.65;100027.88;6019164;28;20085;-65
2022/08/16 02:50:07;;;;;;;13.03;7.70;;;;;;;18.44;91.40;100023.38;6017026;28;20031;-65
2022/08/16 02:53:03;;;;;;;15.40;7.88;;;;;;;18.47;91.67;100041.75;6020636;28;20826;-64
2022/08/16 02:55:58;;;;;;;14.70;8.33;;;;;;;18.35;91.73;100019.28;6023141;28;20031;-65
2022/08/16 02:58:53;;;;;;;14.98;7.85;;;;;;;18.37;92.06;100027.97;6023872;28;20041;-65
2022/08/16 03:01:49;;;;;;;14.20;7.83;;;;;;;18.41;90.94;100031.84;6022726;28;20092;-66
2022/08/16 03:04:44;;;;;;;11.68;6.78;;;;;;;18.61;90.85;100035.31;6019851;28;20271;-66
2022/08/16 03:07:40;;;;;;;16.20;7.60;;;;;;;18.49;89.74;100034.34;6015978;28;20046;-65
2022/08/16 03:10:36;;;;;;;13.55;7.53;;;;;;;18.52;89.54;100031.22;6020919;28;20046;-64
2022/08/16 03:13:31;;;;;;;15.73;7.60;;;;;;;18.47;89.33;100022.97;6023210;28;20046;-65
2022/08/16 03:16:26;;;;;;;12.33;7.33;;;;;;;18.51;89.20;100024.19;6022181;28;20038;-66
2022/08/16 03:19:22;;;;;;;12.13;7.27;;;;;;;18.56;88.84;100027.09;6023439;28;20272;-64
2022/08/16 03:22:18;;;;;;;14.20;8.03;;;;;;;18.57;88.42;100023.34;6021090;28;20045;-64
2022/08/16 03:25:14;;;;;;;10.68;7.03;;;;;;;18.58;88.46;100016.94;6022898;28;20468;-65
2022/08/16 03:28:10;;;;;;;11.15;6.63;;;;;;;18.65;87.60;100031.16;6019989;28;20097;-65
2022/08/16 03:31:05;;;;;;;14.65;6.50;;;;;;;18.65;87.86;100024.94;6022253;28;20061;-65
2022/08/16 03:34:01;;;;;;;14.32;7.03;;;;;;;18.65;87.34;100019.56;6023198;28;20034;-65
2022/08/16 03:36:57;;;;;;;11.70;6.77;;;;;;;18.75;86.56;100030.69;6012615;28;20035;-65
2022/08/16 03:39:52;;;;;;;11.98;6.88;;;;;;;18.65;86.13;100022.25;6019011;28;20066;-65
2022/08/16 03:42:48;;;;;;;11.55;7.45;;;;;;;18.69;86.09;100027.00;6017358;28;20482;-65
2022/08/16 03:45:44;;;;;;;11.20;7.07;;;;;;;18.64;86.08;100012.56;6022464;28;20089;-64
2022/08/16 03:48:40;;;;;;;15.67;7.27;;;;;;;18.64;86.20;100026.00;6018996;28;20045;-65
2022/08/16 03:51:35;;;;;;;11.35;7.18;;;;;;;18.63;86.25;100022.50;6021280;28;20084;-65
2022/08/16 03:54:31;;;;;;;11.18;6.55;;;;;;;18.58;86.73;100025.00;6019589;28;20109;-65
2022/08/16 03:57:28;;;;;;;14.23;7.15;;;;;;;18.52;86.67;100035.75;6021636;28;20485;-65
2022/08/16 04:00:26;;;;;;;15.10;7.15;;;;;;;18.42;87.27;100020.09;6022371;28;20130;-66
2022/08/16 04:03:22;;;;;;;13.93;6.60;;;;;;;18.34;87.73;100033.75;6021728;28;20038;-65
2022/08/16 04:06:17;;;;;;;13.70;6.50;;;;;;;18.35;87.55;100033.53;6014060;28;20375;-64
2022/08/16 04:09:12;;;;;;;10.63;6.37;;;;;;;18.24;88.60;100030.69;6021462;28;20285;-65
2022/08/16 04:12:09;;;;;;;10.85;6.97;;;;;;;18.18;89.04;100035.03;6019078;28;20524;-65
2022/08/16 04:15:08;;;;;;;16.13;8.80;;;;;;;18.11;89.50;100034.25;6018721;28;20540;-65
2022/08/16 04:18:04;;;;;;;14.10;7.63;;;;;;;18.06;89.89;100036.75;6021579;28;20041;-65
2022/08/16 04:20:59;;;;;;;12.00;7.07;;;;;;;18.34;89.69;100049.88;6022367;28;20489;-65
2022/08/16 04:23:55;;;;;;;14.07;7.27;;;;;;;18.21;89.94;100039.16;6029394;28;20043;-66
2022/08/16 04:26:50;;;;;;;12.07;7.75;;;;;;;18.20;90.09;100043.72;6018436;28;20342;-65
2022/08/16 04:29:45;;;;;;;12.80;7.20;;;;;;;18.18;89.95;100044.97;6022290;28;20116;-65
2022/08/16 04:32:42;;;;;;;13.03;7.53;;;;;;;18.11;90.31;100030.72;6022889;28;20030;-65
2022/08/16 04:35:38;;;;;;;12.93;7.55;;;;;;;18.22;89.57;100035.44;6021638;28;20109;-65
2022/08/16 04:38:33;;;;;;;10.45;6.80;;;;;;;18.29;88.69;100047.00;6021107;28;20478;-66
2022/08/16 04:41:32;;;;;;;13.00;6.80;;;;;;;18.27;88.86;100054.41;6021279;28;20521;-66
2022/08/16 04:44:27;;;;;;;10.40;6.75;;;;;;;18.28;88.89;100050.72;6014322;28;20521;-65
2022/08/16 04:47:28;;;;;;;11.90;5.90;;;;;;;18.47;88.71;100057.88;6020977;28;20053;-65
2022/08/16 04:50:26;;;;;;;13.55;6.82;;;;;;;18.54;87.50;100072.09;6017001;28;20038;-64
2022/08/16 04:53:22;;;;;;;13.73;5.85;;;;;;;18.77;87.12;100071.59;6020881;28;20042;-64
2022/08/16 04:56:18;;;;;;;11.47;6.23;;;;;;;18.83;86.33;100074.22;6025698;28;20042;-66
2022/08/16 04:59:13;;;;;;;10.75;6.20;;;;;;;19.02;85.50;100069.81;6037756;28;20019;-64
2022/08/16 05:02:08;;;;;;;7.67;5.53;;;;;;;19.25;83.92;100075.44;6015663;28;20039;-65
2022/08/16 05:05:04;;;;;;;11.07;5.63;;;;;;;19.53;82.11;100069.66;6026957;28;20101;-66
2022/08/16 05:08:00;;;;;;;10.85;5.57;;;;;;;19.72;79.76;100073.22;6027972;28;20412;-65
2022/08/16 05:10:57;;;;;;;10.82;5.43;;;;;;;20.10;78.65;100081.94;6025477;28;20034;-65
2022/08/16 05:13:52;;;;;;;8.52;5.10;;;;;;;20.09;77.84;100072.22;6021172;28;20144;-66
2022/08/16 05:16:47;;;;;;;10.83;5.47;;;;;;;20.26;78.28;100081.38;6026625;28;20054;-66
2022/08/16 05:19:43;;;;;;;7.47;5.10;;;;;;;20.93;76.19;100072.25;6025541;28;20030;-66
2022/08/16 05:22:38;;;;;;;8.73;5.13;;;;;;;21.63;72.25;100083.25;6024588;28;20030;-65
2022/08/16 05:25:33;;;;;;;9.77;5.40;;;;;;;21.46;72.43;100069.59;6021838;28;20359;-64
2022/08/16 05:28:29;;;;;;;9.37;5.40;;;;;;;21.60;72.12;100084.53;6017603;28;20070;-64
2022/08/16 05:31:25;;;;;;;8.50;4.77;;;;;;;21.66;71.63;100080.88;6020314;28;20035;-65
2022/08/16 05:34:21;;;;;;;9.65;5.10;;;;;;;21.87;71.12;100076.81;6025767;28;20072;-65
2022/08/16 05:37:16;;;;;;;8.45;4.88;;;;;;;22.23;69.13;100098.16;6024002;28;20043;-66
2022/08/16 05:40:13;;;;;;;8.37;4.10;;;;;;;22.43;69.43;100087.78;6020410;28;20514;-62
2022/08/16 05:43:08;;;;;;;7.93;4.75;;;;;;;22.60;68.18;100098.69;6023053;28;20265;-63
2022/08/16 05:46:03;;;;;;;11.05;5.00;;;;;;;22.68;67.23;100106.44;6024708;28;20030;-63
2022/08/16 05:48:59;;;;;;;7.25;4.95;;;;;;;22.55;66.59;100106.69;6030057;28;20458;-65
2022/08/16 05:51:55;;;;;;;7.32;5.03;;;;;;;22.23;68.48;100108.97;6014263;28;20038;-65
2022/08/16 05:54:50;;;;;;;8.10;5.10;;;;;;;22.38;68.11;100112.00;6018338;28;20034;-65
2022/08/16 05:57:46;;;;;;;8.20;4.83;;;;;;;22.39;67.90;100105.53;6024403;28;20034;-65
2022/08/16 06:00:41;;;;;;;7.60;4.60;;;;;;;22.22;68.81;100123.53;6019118;28;20274;-66
2022/08/16 06:03:36;;;;;;;9.30;4.90;;;;;;;22.04;69.56;100120.94;6025110;28;20034;-65
2022/08/16 06:06:32;;;;;;;9.85;4.82;;;;;;;22.28;69.24;100121.78;6021375;28;20035;-66
2022/08/16 06:09:27;;;;;;;6.53;4.13;;;;;;;22.64;68.14;100109.88;6025373;28;20076;-64
2022/08/16 06:12:22;;;;;;;7.07;4.67;;;;;;;22.36;68.48;100110.59;6023214;28;20046;-66
2022/08/16 06:15:19;;;;;;;10.03;4.30;;;;;;;23.16;65.47;100119.53;6023060;28;20026;-65
2022/08/16 06:18:14;;;;;;;10.32;4.53;;;;;;;23.33;66.08;100125.00;6023643;28;20270;-66
2022/08/16 06:21:11;;;;;;;7.67;4.60;;;;;;;23.25;65.37;100123.50;6023200;28;20041;-65
2022/08/16 06:24:06;;;;;;;8.30;4.55;;;;;;;23.11;65.76;100122.97;6022870;28;20084;-65
2022/08/16 06:27:02;;;;;;;7.87;4.73;;;;;;;22.66;66.45;100124.81;6022740;28;20026;-65
2022/08/16 06:29:57;;;;;;;8.10;5.00;;;;;;;22.73;66.35;100120.06;6024834;28;20283;-65
2022/08/16 06:32:53;;;;;;;8.30;5.10;;;;;;;23.06;65.25;100124.78;6022118;28;20037;-64
2022/08/16 06:35:52;;;;;;;8.23;4.60;;;;;;;23.22;65.75;100137.53;6023544;28;20080;-64
2022/08/16 06:38:47;;;;;;;8.27;4.10;;;;;;;23.24;64.51;100132.69;6024700;28;20062;-65
2022/08/16 06:41:42;;;;;;;9.20;4.43;;;;;;;23.15;65.41;100134.16;6022886;28;20041;-66
2022/08/16 06:44:38;;;;;;;8.07;4.37;;;;;;;23.91;63.24;100143.63;6019154;28;20045;-65
2022/08/16 06:47:33;;;;;;;6.53;4.23;;;;;;;23.93;62.05;100146.91;6024279;28;20469;-66
2022/08/16 06:50:28;;;;;;;6.83;4.83;;;;;;;23.61;62.56;100150.19;6020972;28;20135;-66
2022/08/16 06:53:24;;;;;;;8.47;5.03;;;;;;;23.40;63.39;100141.94;6017354;28;20168;-66
2022/08/16 06:56:19;;;;;;;8.50;4.50;;;;;;;23.62;63.75;100150.97;6023105;28;20404;-66
2022/08/16 06:59:14;;;;;;;7.93;5.10;;;;;;;23.69;62.25;100159.78;6024073;28;20019;-66
2022/08/16 07:02:10;;;;;;;8.20;4.97;;;;;;;23.77;62.59;100169.38;6016553;28;20289;-65
2022/08/16 07:05:06;;;;;;;7.87;4.77;;;;;;;24.10;63.24;100169.41;6023951;28;20045;-65
2022/08/16 07:08:03;;;;;;;7.72;5.05;;;;;;;23.91;62.97;100165.28;6023226;28;20038;-65
2022/08/16 07:10:58;;;;;;;11.77;5.00;;;;;;;24.16;62.90;100176.56;6021531;28;20458;-65
2022/08/16 07:13:53;;;;;;;6.63;4.93;;;;;;;24.20;62.36;100162.25;6019751;28;20053;-64
2022/08/16 07:16:49;;;;;;;7.77;4.47;;;;;;;24.77;60.84;100159.25;6018592;28;20121;-65
2022/08/16 07:19:44;;;;;;;8.90;4.70;;;;;;;24.46;60.42;100158.00;6022866;28;20041;-66
2022/08/16 07:22:40;;;;;;;7.43;4.30;;;;;;;24.45;60.15;100178.06;6017226;28;20229;-66
2022/08/16 07:25:35;;;;;;;7.63;4.45;;;;;;;24.31;62.25;100165.94;6020952;28;20084;-66
2022/08/16 07:28:30;;;;;;;7.33;4.43;;;;;;;24.69;59.72;100165.94;6018907;28;20073;-63
2022/08/16 07:31:26;;;;;;;6.03;3.93;;;;;;;24.79;59.53;100178.81;6017999;28;20518;-66
2022/08/16 07:34:21;;;;;;;8.43;4.40;;;;;;;24.81;59.37;100177.50;6020253;28;20629;-65
2022/08/16 07:37:17;;;;;;;7.45;3.85;;;;;;;24.75;58.81;100183.09;6020511;28;20457;-64
2022/08/16 07:40:12;;;;;;;8.43;4.57;;;;;;;24.63;58.98;100172.34;6019249;28;20037;-64
2022/08/16 07:43:07;;;;;;;8.63;4.13;;;;;;;24.84;58.91;100171.56;6017845;28;20046;-66
2022/08/16 07:46:03;;;;;;;7.10;3.90;;;;;;;25.04;58.54;100170.19;6009709;28;20269;-66
2022/08/16 07:48:58;;;;;;;6.22;4.43;;;;;;;25.17;56.70;100175.19;6009776;28;20278;-64
2022/08/16 07:51:54;;;;;;;5.70;4.10;;;;;;;25.15;57.17;100177.34;6014812;28;20035;-65
2022/08/16 07:54:49;;;;;;;5.60;3.80;;;;;;;25.15;57.19;100182.78;6013480;28;20755;-65
2022/08/16 07:57:45;;;;;;;7.10;4.37;;;;;;;24.93;58.38;100180.09;6020363;28;20072;-66
2022/08/16 08:00:40;;;;;;;7.68;4.38;;;;;;;24.97;57.09;100175.00;6015852;28;20045;-65
2022/08/16 08:03:35;;;;;;;8.00;3.87;;;;;;;24.97;56.17;100185.84;6019458;28;20498;-65
2022/08/16 08:06:31;;;;;;;7.07;4.20;;;;;;;25.12;56.76;100194.16;6017200;28;20030;-67
2022/08/16 08:09:27;;;;;;;6.95;3.97;;;;;;;25.31;55.58;100195.47;6017962;28;20430;-65
2022/08/16 08:12:23;;;;;;;8.60;3.93;;;;;;;25.26;56.47;100192.69;6016125;28;20027;-64
2022/08/16 08:15:19;;;;;;;5.13;4.00;;;;;;;25.26;55.13;100204.38;6014440;28;20285;-66
2022/08/16 08:18:15;;;;;;;5.43;3.78;;;;;;;25.15;56.93;100193.66;6014401;28;20058;-64
2022/08/16 08:21:10;;;;;;;7.13;3.77;;;;;;;25.62;55.54;100189.31;6014833;28;20384;-65
2022/08/16 08:24:08;;;;;;;9.20;4.33;;;;;;;25.64;55.55;100200.72;6017983;28;20038;-66
2022/08/16 08:27:05;;;;;;;6.07;4.18;;;;;;;25.72;56.25;100200.25;6020982;28;20091;-66
2022/08/16 08:30:00;;;;;;;6.85;4.70;;;;;;;26.25;53.46;100201.28;6014854;28;20717;-65
2022/08/16 08:32:55;;;;;;;8.38;4.75;;;;;;;26.40;53.74;100183.16;6019237;28;20030;-66
2022/08/16 08:35:52;;;;;;;7.97;4.40;;;;;;;26.59;53.29;100192.53;6010568;28;20040;-65
2022/08/16 08:38:47;;;;;;;7.47;4.40;;;;;;;26.68;51.52;100187.41;6018767;28;20736;-65
2022/08/16 08:41:43;;;;;;;6.33;4.13;;;;;;;26.51;52.22;100198.47;6007552;28;20038;-65
2022/08/16 08:44:38;;;;;;;7.47;4.95;;;;;;;26.58;52.58;100206.38;6017666;28;20038;-65
2022/08/16 08:47:34;;;;;;;8.10;4.73;;;;;;;26.55;54.31;100198.75;6017956;28;20763;-65
2022/08/16 08:50:29;;;;;;;7.40;4.10;;;;;;;27.05;52.06;100193.56;6011653;28;20039;-66
2022/08/16 08:53:25;;;;;;;6.13;4.38;;;;;;;26.93;52.03;100203.06;6019347;28;20074;-65
2022/08/16 08:56:21;;;;;;;7.45;5.03;;;;;;;26.62;52.54;100210.22;6018474;28;20065;-66
2022/08/16 08:59:16;;;;;;;6.97;4.40;;;;;;;26.77;51.91;100204.84;6018940;28;20048;-65
2022/08/16 09:02:15;;;;;;;9.17;4.63;;;;;;;27.02;50.23;100205.00;6014482;28;20022;-66
2022/08/16 09:05:12;;;;;;;7.25;4.35;;;;;;;27.04;51.51;100213.72;6016703;28;20137;-66
2022/08/16 09:08:09;;;;;;;8.73;4.80;;;;;;;27.02;51.28;100217.78;6018561;28;20026;-63
2022/08/16 09:11:04;;;;;;;5.18;4.20;;;;;;;27.38;51.29;100205.94;6012778;28;20485;-64
2022/08/16 09:14:00;;;;;;;8.57;4.82;;;;;;;27.33;50.15;100199.66;6017375;28;20125;-65
2022/08/16 09:16:55;;;;;;;6.90;4.57;;;;;;;27.42;50.46;100200.81;6011235;28;20026;-66
2022/08/16 09:19:54;;;;;;;7.10;4.35;;;;;;;26.77;51.07;100199.41;6012925;28;20051;-63
2022/08/16 09:22:49;;;;;;;6.20;4.38;;;;;;;27.02;50.06;100188.66;6020771;28;20152;-64
2022/08/16 09:25:45;;;;;;;9.50;4.43;;;;;;;27.02;49.97;100209.63;6025567;28;20041;-63
2022/08/16 09:28:42;;;;;;;5.65;3.90;;;;;;;27.30;47.69;100202.91;6013227;28;20038;-64
2022/08/16 09:31:37;;;;;;;9.75;4.15;;;;;;;27.51;48.06;100201.91;6011804;28;20041;-64
2022/08/16 09:34:32;;;;;;;6.30;4.00;;;;;;;27.59;47.74;100195.91;6018824;28;20497;-64
2022/08/16 09:37:29;;;;;;;6.23;3.90;;;;;;;27.70;47.15;100203.84;6010310;28;20045;-63
2022/08/16 09:40:24;;;;;;;6.57;3.90;;;;;;;27.38;48.30;100202.38;6016169;28;20027;-63
2022/08/16 09:43:20;;;;;;;8.47;3.80;;;;;;;27.18;48.76;100203.13;6011463;28;20069;-63
2022/08/16 09:46:17;;;;;;;4.40;3.50;;;;;;;26.92;48.60;100196.78;6019709;28;20789;-62
2022/08/16 09:49:12;;;;;;;6.95;4.05;;;;;;;27.13;49.19;100201.22;6022160;28;20084;-63
2022/08/16 09:52:09;;;;;;;7.85;3.50;;;;;;;27.62;46.96;100203.56;6021695;28;20022;-63
2022/08/16 09:55:06;;;;;;;4.68;3.90;;;;;;;27.56;46.94;100210.91;6021978;28;20034;-63
2022/08/16 09:58:01;;;;;;;5.40;3.20;;;;;;;27.58;47.58;100197.84;6015042;28;20033;-63
2022/08/16 10:00:57;;;;;;;4.90;3.23;;;;;;;27.87;46.26;100203.59;6020316;28;20038;-64
2022/08/16 10:03:53;;;;;;;6.63;3.83;;;;;;;28.19;45.85;100204.16;6016012;28;20518;-64
2022/08/16 10:06:48;;;;;;;6.90;3.78;;;;;;;28.23;44.92;100193.53;6016480;28;20080;-63
2022/08/16 10:09:44;;;;;;;5.37;3.40;;;;;;;28.48;44.60;100181.75;6017859;28;20394;-63
2022/08/16 10:15:58;;;;;;;7.00;3.50;;;;;;;28.23;45.42;100191.63;6013718;28;20030;-63
2022/08/16 10:18:54;;;;;;;4.47;3.00;;;;;;;28.75;43.95;100185.81;6019316;28;20054;-63
2022/08/16 10:21:49;;;;;;;7.10;3.70;;;;;;;29.13;42.90;100187.00;6019772;28;20421;-63
2022/08/16 10:24:45;;;;;;;5.00;2.97;;;;;;;28.62;43.85;100188.28;6021785;28;20038;-63
2022/08/16 10:27:40;;;;;;;5.85;2.92;;;;;;;29.06;43.14;100196.56;6017294;28;20470;-64
2022/08/16 10:30:36;;;;;;;5.35;3.47;;;;;;;28.42;43.94;100196.50;6017486;28;20045;-64
2022/08/16 10:33:32;;;;;;;5.50;3.40;;;;;;;27.56;45.55;100199.19;6020135;28;20038;-63
2022/08/16 10:36:28;;;;;;;5.43;3.10;;;;;;;27.92;44.94;100192.69;6011879;28;20050;-64
2022/08/16 10:39:23;;;;;;;7.90;3.03;;;;;;;28.51;44.03;100186.66;6013897;28;20422;-64
2022/08/16 10:42:21;;;;;;;5.43;3.27;;;;;;;29.23;42.69;100202.53;6018633;28;20034;-63
2022/08/16 10:45:18;;;;;;;5.45;3.00;;;;;;;29.06;44.67;100197.41;6016761;28;20100;-63
2022/08/16 10:48:13;;;;;;;4.65;3.40;;;;;;;29.41;44.01;100208.16;6013212;28;20061;-64
2022/08/16 10:51:10;;;;;;;7.27;3.43;;;;;;;29.48;43.35;100205.13;6017945;28;20026;-65
2022/08/16 10:54:05;;;;;;;9.65;3.47;;;;;;;29.36;43.67;100197.28;6030713;28;20038;-63
2022/08/16 10:57:03;;;;;;;6.00;3.75;;;;;;;29.41;42.23;100193.69;6018209;28;20034;-64
2022/08/16 10:59:58;;;;;;;6.32;3.75;;;;;;;29.45;42.92;100206.53;6012565;28;20033;-64
2022/08/16 11:02:53;;;;;;;7.22;3.63;;;;;;;29.67;42.06;100208.84;6015698;28;20030;-63
2022/08/16 11:05:49;;;;;;;5.73;3.10;;;;;;;29.70;41.93;100202.00;6011895;28;20049;-64
2022/08/16 11:08:44;;;;;;;7.60;3.38;;;;;;;29.32;41.60;100198.97;6018048;28;20117;-64
2022/08/16 11:11:40;;;;;;;6.83;3.50;;;;;;;29.10;42.07;100203.13;6015977;28;20237;-64
2022/08/16 11:14:35;;;;;;;5.47;3.75;;;;;;;29.47;39.71;100192.56;6017795;28;20274;-64
2022/08/16 11:17:30;;;;;;;8.65;3.50;;;;;;;28.97;41.96;100198.28;6016289;28;20050;-64
2022/08/16 11:20:27;;;;;;;7.15;3.80;;;;;;;29.43;41.74;100195.03;6017539;28;20549;-64
2022/08/16 11:23:22;;;;;;;5.82;3.70;;;;;;;30.12;41.38;100188.53;6018919;28;20041;-63
2022/08/16 11:26:17;;;;;;;7.43;3.93;;;;;;;30.30;39.79;100206.16;6016388;28;20118;-64
2022/08/16 11:29:13;;;;;;;5.55;3.60;;;;;;;30.08;39.64;100203.91;6019511;28;20119;-63
2022/08/16 11:32:08;;;;;;;6.20;4.00;;;;;;;29.73;41.71;100204.97;6016703;28;20149;-64
2022/08/16 11:35:15;;;;;;;4.53;3.57;;;;;;;29.92;41.85;100211.41;6016245;28;20046;-64
2022/08/16 11:38:16;;;;;;;6.57;3.78;;;;;;;29.26;41.61;100212.91;6017036;28;20035;-64
2022/08/16 11:41:12;;;;;;;7.55;3.67;;;;;;;29.84;41.23;100213.94;6016981;28;20058;-64
2022/08/16 11:44:07;;;;;;;7.83;4.10;;;;;;;30.30;40.60;100209.72;6018868;28;20053;-64
2022/08/16 11:47:02;;;;;;;6.80;4.30;;;;;;;30.84;38.76;100211.38;6015743;28;20073;-64
2022/08/16 11:49:59;;;;;;;5.70;3.63;;;;;;;30.24;38.91;100207.31;6018240;28;20401;-64
2022/08/16 11:52:54;;;;;;;8.88;3.83;;;;;;;29.87;40.51;100216.13;6011646;28;20034;-64
2022/08/16 11:55:52;;;;;;;7.33;3.37;;;;;;;30.60;38.82;100211.38;6016581;28;20532;-65
2022/08/16 11:58:47;;;;;;;4.95;3.35;;;;;;;30.43;38.48;100208.25;6014081;28;20042;-64
2022/08/16 12:01:43;;;;;;;8.52;4.20;;;;;;;30.80;37.73;100210.31;6021931;28;20041;-64
2022/08/16 12:04:38;;;;;;;6.07;3.30;;;;;;;31.10;38.07;100209.97;6016429;28;20437;-64
2022/08/16 12:07:33;;;;;;;8.17;3.60;;;;;;;31.13;37.13;100204.72;6015182;28;20038;-64
2022/08/16 12:10:29;;;;;;;6.18;3.63;;;;;;;31.38;36.03;100205.47;6013540;28;20023;-64
2022/08/16 12:13:26;;;;;;;6.10;3.47;;;;;;;30.92;37.53;100210.75;6018214;28;20106;-64
2022/08/16 12:16:21;;;;;;;6.70;3.75;;;;;;;30.45;37.24;100201.38;6012456;28;20073;-64
2022/08/16 12:19:18;;;;;;;5.90;3.75;;;;;;;30.69;37.42;100204.13;6018830;28;20038;-64
2022/08/16 12:22:15;;;;;;;5.75;3.63;;;;;;;30.36;37.50;100205.03;6015720;28;20044;-64
2022/08/16 12:25:14;;;;;;;6.72;3.90;;;;;;;29.50;39.84;100209.22;6018719;28;20126;-63
2022/08/16 12:28:09;;;;;;;;;;;;;;;29.78;39.21;100210.41;6032437;28;20097;-63
2022/08/16 12:31:05;;;;;;;7.83;3.60;;;;;;;30.11;38.50;100197.03;6016311;28;19932;-64
2022/08/16 12:34:00;;;;;;;7.68;3.40;;;;;;;30.40;38.55;100201.44;6016663;28;20289;-64
2022/08/16 12:36:57;;;;;;;5.63;3.72;;;;;;;30.83;37.38;100199.59;6018376;28;20537;-64
2022/08/16 12:39:54;;;;;;;5.60;3.75;;;;;;;30.93;37.19;100198.69;6017677;28;20034;-65
2022/08/16 12:42:53;;;;;;;4.35;3.38;;;;;;;31.08;37.25;100195.75;6012921;28;20145;-65
2022/08/16 12:45:51;;;;;;;6.55;3.33;;;;;;;31.26;36.13;100208.66;6009723;28;20045;-63
2022/08/16 12:48:59;;;;;;;7.28;3.38;;;;;;;31.22;36.27;100196.66;6008734;28;20050;-64
2022/08/16 12:51:54;;;;;;;7.32;3.30;;;;;;;30.67;37.23;100196.22;6015404;28;20720;-64
2022/08/16 12:54:50;;;;;;;6.85;3.47;;;;;;;30.87;35.88;100189.69;6011640;28;20039;-64
2022/08/16 12:57:46;;;;;;;4.47;3.30;;;;;;;31.23;36.45;100192.78;6017332;28;20045;-63
2022/08/16 13:00:42;;;;;;;6.05;3.42;;;;;;;30.99;36.92;100197.50;6013005;28;20780;-64
2022/08/16 13:03:38;;;;;;;6.55;3.47;;;;;;;29.83;37.89;100195.91;6018702;28;20129;-64
2022/08/16 13:06:35;;;;;;;5.93;3.25;;;;;;;30.32;37.30;100182.06;6018850;28;20118;-64
2022/08/16 13:09:32;;;;;;;4.88;3.15;;;;;;;30.96;37.96;100190.69;6011459;28;20035;-64
2022/08/16 13:12:27;;;;;;;4.00;2.65;;;;;;;31.21;35.91;100173.91;6016317;28;20162;-64
2022/08/16 13:15:26;;;;;;;4.27;3.00;;;;;;;31.52;36.17;100179.81;6017429;28;20156;-64
2022/08/16 13:18:23;;;;;;;5.32;2.97;;;;;;;31.61;34.54;100178.00;6019422;28;20274;-64
2022/08/16 13:21:19;;;;;;;5.40;3.03;;;;;;;31.06;35.29;100171.41;6019519;28;20031;-64
2022/08/16 13:24:14;;;;;;;8.10;3.20;;;;;;;30.05;36.88;100177.13;6021636;28;20041;-64
2022/08/16 13:27:10;;;;;;;9.00;3.33;;;;;;;30.75;36.31;100164.63;6025355;28;20419;-64
2022/08/16 13:30:05;;;;;;;6.13;3.10;;;;;;;31.06;35.46;100176.06;6019373;28;20607;-64
2022/08/16 13:33:02;;;;;;;4.90;2.90;;;;;;;31.62;33.87;100163.19;6020699;28;20066;-65
2022/08/16 13:35:59;;;;;;;4.75;2.83;;;;;;;31.73;33.38;100174.81;6026185;28;20030;-64
2022/08/16 13:38:54;;;;;;;4.85;2.90;;;;;;;31.79;33.69;100173.63;6028479;28;20034;-64
2022/08/16 13:41:49;;;;;;;8.93;2.97;;;;;;;31.93;33.83;100185.47;6021591;28;20826;-65